createdAt,value
2019-05-19T00:01:14.306Z,24.67
2019-05-19T00:03:52.686Z,57.03
2019-05-19T00:06:27.216Z,44.43
2019-05-19T00:09:01.988Z,30.07
2019-05-19T00:11:38.290Z,40.00
2019-05-19T00:14:14.882Z,20.43
2019-05-19T00:16:53.440Z,25.80
2019-05-19T00:19:27.920Z,19.20
2019-05-19T00:22:05.758Z,28.50
2019-05-19T00:24:48.477Z,32.17
2019-05-19T00:27:21.224Z,28.73
2019-05-19T00:30:03.646Z,19.77
2019-05-19T00:32:38.215Z,27.20
2019-05-19T00:35:14.130Z,28.57
2019-05-19T00:37:48.939Z,29.80
2019-05-19T00:40:22.645Z,20.53
2019-05-19T00:42:59.761Z,25.50
2019-05-19T00:45:35.120Z,17.93
2019-05-19T00:48:09.439Z,24.37
2019-05-19T00:50:44.471Z,20.83
2019-05-19T00:53:18.417Z,21.40
2019-05-19T00:55:54.718Z,34.33
2019-05-19T00:58:29.662Z,22.73
2019-05-19T01:01:02.634Z,57.67
2019-05-19T01:03:36.781Z,32.30
2019-05-19T01:06:09.537Z,30.70
2019-05-19T01:08:44.477Z,20.03
2019-05-19T01:11:18.485Z,23.73
2019-05-19T01:13:52.830Z,19.37
2019-05-19T01:16:29.492Z,14.97
2019-05-19T01:19:07.130Z,27.73
2019-05-19T01:21:43.400Z,32.93
2019-05-19T01:24:17.304Z,31.17
2019-05-19T01:26:52.709Z,39.30
2019-05-19T01:29:27.350Z,31.60
2019-05-19T01:32:03.240Z,23.53
2019-05-19T01:34:37.390Z,24.10
2019-05-19T01:37:11.731Z,18.77
2019-05-19T01:39:45.704Z,31.73
2019-05-19T01:42:21.844Z,14.97
2019-05-19T01:44:59.776Z,32.63
2019-05-19T01:47:34.260Z,46.30
2019-05-19T01:50:17.649Z,27.77
2019-05-19T01:52:43.519Z,20.43
2019-05-19T01:55:18.464Z,22.33
2019-05-19T01:57:54.333Z,17.33
2019-05-19T02:00:28.221Z,20.43
2019-05-19T02:03:01.990Z,16.80
2019-05-19T02:05:35.746Z,21.57
2019-05-19T02:08:08.737Z,23.03
2019-05-19T02:10:44.036Z,12.03
2019-05-19T02:13:17.815Z,16.77
2019-05-19T02:15:51.383Z,22.83
2019-05-19T02:18:26.828Z,17.73
2019-05-19T02:21:04.010Z,23.93
2019-05-19T02:23:37.649Z,22.87
2019-05-19T02:26:11.498Z,18.33
2019-05-19T02:28:44.551Z,14.20
2019-05-19T02:31:17.477Z,18.43
2019-05-19T02:33:50.719Z,15.33
2019-05-19T02:36:25.335Z,21.27
2019-05-19T02:39:00.759Z,29.63
2019-05-19T02:41:37.726Z,20.47
2019-05-19T02:44:13.619Z,19.93
2019-05-19T02:46:48.812Z,17.47
2019-05-19T02:49:24.129Z,19.30
2019-05-19T02:52:01.386Z,21.10
2019-05-19T02:54:35.921Z,20.73
2019-05-19T02:57:11.191Z,11.43
2019-05-19T02:59:45.555Z,15.70
2019-05-19T03:02:20.278Z,32.30
2019-05-19T03:04:56.213Z,33.20
2019-05-19T03:07:33.129Z,22.63
2019-05-19T03:10:07.528Z,23.90
2019-05-19T03:12:40.990Z,22.63
2019-05-19T03:15:14.194Z,15.80
2019-05-19T03:17:49.794Z,25.83
2019-05-19T03:20:24.087Z,16.93
2019-05-19T03:22:58.635Z,16.97
2019-05-19T03:25:33.130Z,19.87
2019-05-19T03:28:07.350Z,48.20
2019-05-19T03:30:50.755Z,15.83
2019-05-19T03:33:28.739Z,25.10
2019-05-19T03:36:03.138Z,15.70
2019-05-19T03:38:37.050Z,17.27
2019-05-19T03:41:10.590Z,15.70
2019-05-19T03:43:50.900Z,24.13
2019-05-19T03:46:24.678Z,21.17
2019-05-19T03:49:04.977Z,12.37
2019-05-19T03:51:38.045Z,18.57
2019-05-19T03:54:12.711Z,21.93
2019-05-19T03:56:56.375Z,16.03
2019-05-19T03:59:31.358Z,30.07
2019-05-19T04:02:06.373Z,46.30
2019-05-19T04:04:39.827Z,23.53
2019-05-19T04:07:13.187Z,30.93
2019-05-19T04:09:46.316Z,30.43
2019-05-19T04:12:22.065Z,28.77
2019-05-19T04:14:58.341Z,22.80
2019-05-19T04:17:31.749Z,44.77
2019-05-19T04:20:05.591Z,32.03
2019-05-19T04:22:43.153Z,26.80
2019-05-19T04:25:17.134Z,46.03
2019-05-19T04:27:52.720Z,40.37
2019-05-19T04:30:26.618Z,15.20
2019-05-19T04:32:59.735Z,20.17
2019-05-19T04:35:34.287Z,13.83
2019-05-19T04:38:09.954Z,14.33
2019-05-19T04:40:46.545Z,17.13
2019-05-19T04:43:34.786Z,10.33
2019-05-19T04:46:14.648Z,12.33
2019-05-19T04:48:50.654Z,17.00
2019-05-19T04:51:25.355Z,10.67
2019-05-19T04:53:59.455Z,13.27
2019-05-19T04:57:03.405Z,12.33
2019-05-19T04:59:36.731Z,14.80
2019-05-19T05:02:13.135Z,16.50
2019-05-19T05:04:47.490Z,19.63
2019-05-19T05:07:22.196Z,16.70
2019-05-19T05:09:57.525Z,17.20
2019-05-19T05:12:32.288Z,11.83
2019-05-19T05:15:12.474Z,15.67
2019-05-19T05:17:47.218Z,13.97
2019-05-19T05:20:21.641Z,24.20
2019-05-19T05:22:57.567Z,29.03
2019-05-19T05:25:48.112Z,30.30
2019-05-19T05:28:22.174Z,22.83
2019-05-19T05:31:00.316Z,37.33
2019-05-19T05:33:36.176Z,42.83
2019-05-19T05:36:15.894Z,37.63
2019-05-19T05:38:52.428Z,23.40
2019-05-19T05:41:28.012Z,29.93
2019-05-19T05:44:09.094Z,31.90
2019-05-19T05:46:57.443Z,43.03
2019-05-19T05:49:32.847Z,24.33
2019-05-19T05:52:07.125Z,34.43
2019-05-19T05:54:45.241Z,28.80
2019-05-19T05:57:29.113Z,32.43
2019-05-19T06:00:09.228Z,9.90
2019-05-19T06:02:43.124Z,14.03
2019-05-19T06:05:19.734Z,24.47
2019-05-19T06:07:57.406Z,21.10
2019-05-19T06:10:34.884Z,16.93
2019-05-19T06:13:14.045Z,15.90
2019-05-19T06:15:57.080Z,14.73
2019-05-19T06:18:31.377Z,23.20
2019-05-19T06:21:09.854Z,31.13
2019-05-19T06:23:43.260Z,50.07
2019-05-19T06:26:17.061Z,18.13
2019-05-19T06:28:50.631Z,12.17
2019-05-19T06:31:24.650Z,8.27
2019-05-19T06:33:58.963Z,17.93
2019-05-19T06:36:32.709Z,16.73
2019-05-19T06:39:08.113Z,18.97
2019-05-19T06:41:41.939Z,22.70
2019-05-19T06:44:15.958Z,32.60
2019-05-19T06:46:53.006Z,35.27
2019-05-19T06:49:26.090Z,25.67
2019-05-19T06:52:00.563Z,10.23
2019-05-19T06:55:18.964Z,14.63
2019-05-19T06:57:54.079Z,13.70
2019-05-19T07:00:27.918Z,9.73
2019-05-19T07:03:01.870Z,13.83
2019-05-19T07:05:35.146Z,14.13
2019-05-19T07:08:08.469Z,16.73
2019-05-19T07:10:41.921Z,27.43
2019-05-19T07:13:19.997Z,16.23
2019-05-19T07:15:54.307Z,10.23
2019-05-19T07:18:28.553Z,9.10
2019-05-19T07:21:02.497Z,14.33
2019-05-19T07:23:37.853Z,6.93
2019-05-19T07:26:13.023Z,19.50
2019-05-19T07:28:47.331Z,23.60
2019-05-19T07:31:25.808Z,10.40
2019-05-19T07:33:59.793Z,20.53
2019-05-19T07:36:31.884Z,25.80
2019-05-19T07:39:47.228Z,9.37
2019-05-19T07:42:24.684Z,27.80
2019-05-19T07:44:58.760Z,8.37
2019-05-19T07:47:35.215Z,13.00
2019-05-19T07:50:13.420Z,14.27
2019-05-19T07:52:48.829Z,12.87
2019-05-19T07:55:22.697Z,20.93
2019-05-19T07:57:59.500Z,11.87
2019-05-19T08:01:44.316Z,12.17
2019-05-19T08:04:40.956Z,9.70
2019-05-19T08:07:21.827Z,11.13
2019-05-19T08:09:57.106Z,7.13
2019-05-19T08:12:33.544Z,9.43
2019-05-19T08:15:30.661Z,8.03
2019-05-19T08:18:09.108Z,16.23
2019-05-19T08:20:43.490Z,12.93
2019-05-19T08:23:20.438Z,10.20
2019-05-19T08:25:55.525Z,11.40
2019-05-19T08:28:32.545Z,18.10
2019-05-19T08:31:15.204Z,13.13
2019-05-19T08:34:12.713Z,20.20
2019-05-19T08:36:54.562Z,15.80
2019-05-19T08:39:38.208Z,12.57
2019-05-19T08:42:44.505Z,22.07
2019-05-19T08:45:18.938Z,6.27
2019-05-19T08:47:58.364Z,14.50
2019-05-19T08:50:35.878Z,9.23
2019-05-19T08:53:16.146Z,4.57
2019-05-19T08:56:41.432Z,6.20
2019-05-19T08:59:55.218Z,7.17
2019-05-19T09:02:28.398Z,6.97
2019-05-19T09:05:02.944Z,12.07
2019-05-19T09:07:50.814Z,3.83
2019-05-19T09:10:29.531Z,6.33
2019-05-19T09:13:06.935Z,6.87
2019-05-19T09:15:51.950Z,7.93
2019-05-19T09:19:06.142Z,7.40
2019-05-19T09:21:40.887Z,8.73
2019-05-19T09:25:13.355Z,7.70
2019-05-19T09:27:47.483Z,10.13
2019-05-19T09:30:22.195Z,7.90
2019-05-19T09:32:54.706Z,9.30
2019-05-19T09:35:41.546Z,8.57
2019-05-19T09:38:15.876Z,12.40
2019-05-19T09:41:52.425Z,7.80
2019-05-19T09:44:44.410Z,16.60
2019-05-19T09:47:18.692Z,27.10
2019-05-19T09:50:46.489Z,5.13
2019-05-19T09:57:30.250Z,13.13
2019-05-19T10:00:41.927Z,7.73
2019-05-19T10:07:08.440Z,8.63
2019-05-19T10:10:02.431Z,15.17
2019-05-19T10:13:43.382Z,10.07
2019-05-19T10:16:30.799Z,7.50
2019-05-19T10:19:05.671Z,14.17
2019-05-19T10:21:39.652Z,13.30
2019-05-19T10:24:21.158Z,8.93
2019-05-19T10:30:39.837Z,6.73
2019-05-19T10:34:00.239Z,7.83
2019-05-19T10:37:40.047Z,7.30
2019-05-19T10:40:31.100Z,6.33
2019-05-19T10:43:38.418Z,8.53
2019-05-19T10:54:28.482Z,5.07
2019-05-19T10:57:02.088Z,15.33
2019-05-19T10:59:58.600Z,31.40
2019-05-19T11:02:53.302Z,14.97
2019-05-19T11:05:27.387Z,7.43
2019-05-19T11:08:08.333Z,5.90
2019-05-19T11:15:41.289Z,7.33
2019-05-19T11:18:16.793Z,8.80
2019-05-19T11:21:11.045Z,4.80
2019-05-19T11:24:00.214Z,5.90
2019-05-19T11:26:35.872Z,3.33
2019-05-19T11:29:10.320Z,6.83
2019-05-19T11:31:44.829Z,4.00
2019-05-19T11:34:18.511Z,6.53
2019-05-19T11:36:52.690Z,2.97
2019-05-19T11:39:26.760Z,5.70
2019-05-19T11:42:27.260Z,4.07
2019-05-19T11:45:10.622Z,9.57
2019-05-19T11:47:49.374Z,12.60
2019-05-19T11:50:24.158Z,9.10
2019-05-19T11:53:00.655Z,4.30
2019-05-19T11:55:35.148Z,3.97
2019-05-19T11:58:09.228Z,10.90
2019-05-19T12:01:05.365Z,6.00
2019-05-19T12:03:39.497Z,7.70
2019-05-19T12:06:13.538Z,14.70
2019-05-19T12:08:47.285Z,3.90
2019-05-19T12:11:21.070Z,8.80
2019-05-19T12:13:58.888Z,6.70
2019-05-19T12:16:34.589Z,4.10
2019-05-19T12:19:09.731Z,5.23
2019-05-19T12:21:50.662Z,5.10
2019-05-19T12:24:53.453Z,6.63
2019-05-19T12:27:26.794Z,5.90
2019-05-19T12:30:01.989Z,5.10
2019-05-19T12:32:36.570Z,8.13
2019-05-19T12:35:10.536Z,11.40
2019-05-19T12:37:45.925Z,9.30
2019-05-19T12:40:22.629Z,6.60
2019-05-19T12:42:55.291Z,8.50
2019-05-19T12:45:33.393Z,10.10
2019-05-19T12:48:07.701Z,10.43
2019-05-19T12:50:42.167Z,8.70
2019-05-19T12:53:20.468Z,13.57
2019-05-19T12:55:54.627Z,21.17
2019-05-19T12:58:27.676Z,9.37
2019-05-19T13:01:00.795Z,10.93
2019-05-19T13:03:36.579Z,11.67
2019-05-19T13:06:12.097Z,11.87
2019-05-19T13:08:46.862Z,13.93
2019-05-19T13:11:21.190Z,12.77
2019-05-19T13:13:58.928Z,15.03
2019-05-19T13:16:32.749Z,12.37
2019-05-19T13:19:07.669Z,20.37
2019-05-19T13:21:46.413Z,21.37
2019-05-19T13:24:23.020Z,15.40
2019-05-19T13:26:57.093Z,24.80
2019-05-19T13:29:31.115Z,12.90
2019-05-19T13:32:09.568Z,15.20
2019-05-19T13:34:43.126Z,19.67
2019-05-19T13:37:17.255Z,18.20
2019-05-19T13:39:53.955Z,19.53
2019-05-19T13:42:27.537Z,13.27
2019-05-19T13:45:01.964Z,21.03
2019-05-19T13:47:37.508Z,16.47
2019-05-19T13:50:12.684Z,16.90
2019-05-19T13:52:46.678Z,21.80
2019-05-19T13:55:20.879Z,12.93
2019-05-19T13:57:55.001Z,16.57
2019-05-19T14:00:29.631Z,18.40
2019-05-19T14:03:11.643Z,21.03
2019-05-19T14:05:46.133Z,28.53
2019-05-19T14:08:21.275Z,31.30
2019-05-19T14:10:58.597Z,15.27
2019-05-19T14:13:33.855Z,21.10
2019-05-19T14:16:25.944Z,20.27
2019-05-19T14:18:59.932Z,15.67
2019-05-19T14:21:34.295Z,16.93
2019-05-19T14:24:07.887Z,19.63
2019-05-19T14:26:45.225Z,24.43
2019-05-19T14:29:18.322Z,24.60
2019-05-19T14:31:50.880Z,22.90
2019-05-19T14:34:25.182Z,17.47
2019-05-19T14:37:02.786Z,15.77
2019-05-19T14:39:37.293Z,16.60
2019-05-19T14:42:57.541Z,16.33
2019-05-19T14:45:31.816Z,17.47
2019-05-19T14:48:08.712Z,19.23
2019-05-19T14:50:42.291Z,21.37
2019-05-19T14:53:16.533Z,22.80
2019-05-19T14:55:50.860Z,25.13
2019-05-19T14:58:24.869Z,22.47
2019-05-19T15:00:58.731Z,18.03
2019-05-19T15:03:35.183Z,26.10
2019-05-19T15:06:09.798Z,31.43
2019-05-19T15:08:56.580Z,19.97
2019-05-19T15:11:35.335Z,32.63
2019-05-19T15:14:09.393Z,21.73
2019-05-19T15:16:43.072Z,23.90
2019-05-19T15:19:18.405Z,22.20
2019-05-19T15:21:55.351Z,36.07
2019-05-19T15:24:29.303Z,22.30
2019-05-19T15:27:01.702Z,36.03
2019-05-19T15:29:35.784Z,21.23
2019-05-19T15:32:09.670Z,24.53
2019-05-19T15:34:43.357Z,35.67
2019-05-19T15:37:19.540Z,35.17
2019-05-19T15:39:54.561Z,23.17
2019-05-19T15:42:29.363Z,27.47
2019-05-19T15:45:05.673Z,39.47
2019-05-19T15:47:39.575Z,33.07
2019-05-19T15:50:27.662Z,29.33
2019-05-19T15:53:01.781Z,27.93
2019-05-19T15:55:35.648Z,28.87
2019-05-19T15:58:16.385Z,31.90
2019-05-19T16:00:45.303Z,36.63
2019-05-19T16:03:20.969Z,33.63
2019-05-19T16:05:57.726Z,24.33
2019-05-19T16:09:01.495Z,26.23
2019-05-19T16:12:08.995Z,27.60
2019-05-19T16:15:50.330Z,23.70
2019-05-19T16:18:24.957Z,31.20
2019-05-19T16:20:59.273Z,31.80
2019-05-19T16:23:52.035Z,31.07
2019-05-19T16:26:27.482Z,25.40
2019-05-19T16:29:06.131Z,33.20
2019-05-19T16:31:39.716Z,35.83
2019-05-19T16:34:13.759Z,33.43
2019-05-19T16:36:47.488Z,31.70
2019-05-19T16:39:21.869Z,24.10
2019-05-19T16:41:55.797Z,59.13
2019-05-19T16:44:34.069Z,29.93
2019-05-19T16:48:33.355Z,46.13
2019-05-19T16:51:07.121Z,36.00
2019-05-19T16:54:15.955Z,54.10
2019-05-19T16:57:09.839Z,55.83
2019-05-19T16:59:41.938Z,44.33
2019-05-19T17:02:16.086Z,52.00
2019-05-19T17:04:50.537Z,45.20
2019-05-19T17:07:25.715Z,41.53
2019-05-19T17:10:00.085Z,47.83
2019-05-19T17:20:11.553Z,48.10
2019-05-19T17:22:45.016Z,27.67
2019-05-19T17:28:57.524Z,32.90
2019-05-19T17:31:22.322Z,22.97
2019-05-19T17:33:56.390Z,52.30
2019-05-19T17:36:33.803Z,33.47
2019-05-19T17:39:08.897Z,22.23
2019-05-19T17:41:43.903Z,29.37
2019-05-19T17:44:18.039Z,28.00
2019-05-19T17:46:53.875Z,30.30
2019-05-19T17:49:36.406Z,40.13
2019-05-19T17:52:24.745Z,23.00
2019-05-19T17:54:59.009Z,27.80
2019-05-19T17:57:34.777Z,20.47
2019-05-19T18:00:10.230Z,19.70
2019-05-19T18:02:44.637Z,35.23
2019-05-19T18:05:18.827Z,64.77
2019-05-19T18:07:53.190Z,55.37
2019-05-19T18:10:27.671Z,48.30
2019-05-19T18:13:12.102Z,36.30
2019-05-19T18:15:45.575Z,52.57
2019-05-19T18:18:37.009Z,45.50
2019-05-19T18:21:13.586Z,53.67
2019-05-19T18:23:47.765Z,37.20
2019-05-19T18:26:21.391Z,31.83
2019-05-19T18:28:55.584Z,36.67
2019-05-19T18:31:31.222Z,39.93
2019-05-19T18:34:08.834Z,36.07
2019-05-19T18:36:47.363Z,35.27
2019-05-19T18:39:21.956Z,45.13
2019-05-19T18:41:56.788Z,36.90
2019-05-19T18:44:30.526Z,42.77
2019-05-19T18:50:51.943Z,29.50
2019-05-19T18:53:24.411Z,33.37
2019-05-19T18:55:59.269Z,34.93
2019-05-19T18:58:34.475Z,34.73
2019-05-19T19:01:09.658Z,60.60
2019-05-19T19:03:46.456Z,61.47
2019-05-19T19:06:20.460Z,50.33
2019-05-19T19:08:53.959Z,34.43
2019-05-19T19:11:30.470Z,34.03
2019-05-19T19:14:06.819Z,47.37
2019-05-19T19:16:40.915Z,32.53
2019-05-19T19:19:13.028Z,37.10
2019-05-19T19:22:45.178Z,41.37
2019-05-19T19:25:19.379Z,44.20
2019-05-19T19:28:11.608Z,40.97
2019-05-19T19:30:50.662Z,37.67
2019-05-19T19:33:49.327Z,41.83
2019-05-19T19:39:55.208Z,27.60
2019-05-19T19:42:35.685Z,37.00
2019-05-19T19:45:09.455Z,34.10
2019-05-19T19:47:43.427Z,31.97
2019-05-19T19:50:19.374Z,38.57
2019-05-19T19:52:54.010Z,35.70
2019-05-19T19:59:40.365Z,47.30
2019-05-19T20:02:15.526Z,39.80
2019-05-19T20:05:16.713Z,35.87
2019-05-19T20:07:50.639Z,31.40
2019-05-19T20:10:23.545Z,36.03
2019-05-19T20:12:58.451Z,25.50
2019-05-19T20:15:58.886Z,28.33
2019-05-19T20:18:34.616Z,27.13
2019-05-19T20:21:10.722Z,36.13
2019-05-19T20:23:45.076Z,36.73
2019-05-19T20:26:20.414Z,24.73
2019-05-19T20:29:09.624Z,18.47
2019-05-19T20:31:44.958Z,21.50
2019-05-19T20:35:11.438Z,26.23
2019-05-19T20:38:07.430Z,22.83
2019-05-19T20:40:42.178Z,45.40
2019-05-19T20:43:19.262Z,107.80
2019-05-19T20:45:55.309Z,34.20
2019-05-19T20:48:34.401Z,26.87
2019-05-19T20:51:08.589Z,28.93
2019-05-19T20:53:44.914Z,28.33
2019-05-19T20:56:19.109Z,24.07
2019-05-19T20:58:52.139Z,28.27
2019-05-19T21:01:29.271Z,27.90
2019-05-19T21:04:03.597Z,25.90
2019-05-19T21:06:35.788Z,85.67
2019-05-19T21:09:09.165Z,32.53
2019-05-19T21:11:43.379Z,29.13
2019-05-19T21:14:17.575Z,28.67
2019-05-19T21:16:51.120Z,22.67
2019-05-19T21:19:25.413Z,23.53
2019-05-19T21:22:00.055Z,23.83
2019-05-19T21:24:34.533Z,25.17
2019-05-19T21:27:07.483Z,24.40
2019-05-19T21:30:10.564Z,29.47
2019-05-19T21:32:47.793Z,22.80
2019-05-19T21:35:22.125Z,23.50
2019-05-19T21:37:56.331Z,24.93
2019-05-19T21:40:30.540Z,21.50
2019-05-19T21:43:04.484Z,18.70
2019-05-19T21:45:37.431Z,19.07
2019-05-19T21:48:10.429Z,21.97
2019-05-19T21:50:43.884Z,32.57
2019-05-19T21:53:21.177Z,26.37
2019-05-19T21:55:54.716Z,17.80
2019-05-19T21:58:28.597Z,20.10
2019-05-19T22:01:02.850Z,18.40
2019-05-19T22:08:14.748Z,17.07
2019-05-19T22:10:48.713Z,18.50
2019-05-19T22:13:23.009Z,25.40
2019-05-19T22:16:11.629Z,26.63
2019-05-19T22:18:32.141Z,17.20
2019-05-19T22:21:05.913Z,22.50
2019-05-19T22:23:40.165Z,33.37
2019-05-19T22:26:14.188Z,17.17
2019-05-19T22:28:48.751Z,14.77
2019-05-19T22:32:03.054Z,13.60
2019-05-19T22:38:01.689Z,18.60
2019-05-19T22:40:38.786Z,15.17
2019-05-19T22:43:17.601Z,13.20
2019-05-19T22:45:52.090Z,11.03
2019-05-19T22:48:26.879Z,17.07
2019-05-19T22:51:02.373Z,19.63
2019-05-19T22:53:35.475Z,26.40
2019-05-19T22:56:08.832Z,13.90
2019-05-19T22:58:43.033Z,11.23
2019-05-19T23:01:21.360Z,13.77
2019-05-19T23:03:56.062Z,13.87
2019-05-19T23:06:33.372Z,12.57
2019-05-19T23:09:13.057Z,14.90
2019-05-19T23:11:47.379Z,14.57
2019-05-19T23:14:22.802Z,14.93
2019-05-19T23:16:58.660Z,11.33
2019-05-19T23:19:34.247Z,13.27
2019-05-19T23:22:10.759Z,13.47
2019-05-19T23:24:46.718Z,18.77
2019-05-19T23:27:21.534Z,12.67
2019-05-19T23:29:57.090Z,14.50
2019-05-19T23:32:30.760Z,10.07
2019-05-19T23:35:04.797Z,12.27
2019-05-19T23:37:45.895Z,11.77
2019-05-19T23:40:20.540Z,11.10
2019-05-19T23:42:59.663Z,12.83
2019-05-19T23:45:34.956Z,13.07
2019-05-19T23:48:08.787Z,11.50
2019-05-19T23:50:44.000Z,12.60
2019-05-19T23:53:16.789Z,12.00
2019-05-19T23:55:49.827Z,7.83
2019-05-19T23:58:23.439Z,12.83
